createdAt,value
2022-12-06T00:00:09.726Z,-8.88
2022-12-06T00:05:15.175Z,-9.00
2022-12-06T00:10:17.801Z,-8.90
2022-12-06T00:15:20.365Z,-8.75
2022-12-06T00:20:22.913Z,-8.59
2022-12-06T00:25:25.664Z,-9.16
2022-12-06T00:30:28.279Z,-8.91
2022-12-06T00:35:31.167Z,-8.69
2022-12-06T00:40:33.764Z,-8.99
2022-12-06T00:45:36.331Z,-8.87
2022-12-06T00:50:38.975Z,-8.83
2022-12-06T00:55:43.071Z,-8.72
2022-12-06T01:00:45.614Z,-8.56
2022-12-06T01:05:51.552Z,-8.71
2022-12-06T01:10:54.970Z,-8.53
2022-12-06T01:15:57.665Z,-8.50
2022-12-06T01:21:12.935Z,-8.66
2022-12-06T01:26:26.027Z,-8.74
2022-12-06T01:31:37.145Z,-8.62
2022-12-06T01:36:42.640Z,-8.53
2022-12-06T01:41:45.206Z,-8.37
2022-12-06T01:46:47.947Z,-8.49
2022-12-06T01:52:01.859Z,-8.26
2022-12-06T01:57:07.231Z,-8.33
2022-12-06T02:02:10.193Z,-8.47
2022-12-06T02:07:14.213Z,-8.56
2022-12-06T02:12:16.946Z,-8.75
2022-12-06T02:17:40.806Z,-8.77
2022-12-06T02:23:16.320Z,-8.70
2022-12-06T02:28:27.778Z,-8.74
2022-12-06T02:33:44.261Z,-8.79
2022-12-06T02:38:58.462Z,-8.55
2022-12-06T02:44:05.660Z,-8.51
2022-12-06T02:49:10.700Z,-8.43
2022-12-06T02:54:14.260Z,-8.50
2022-12-06T02:59:16.828Z,-8.79
2022-12-06T03:04:46.472Z,-8.57
2022-12-06T03:10:36.174Z,-8.64
2022-12-06T03:15:53.956Z,-8.63
2022-12-06T03:21:10.774Z,-8.50
2022-12-06T03:26:19.335Z,-8.60
2022-12-06T03:31:24.010Z,-8.66
2022-12-06T03:36:29.010Z,-8.82
2022-12-06T03:41:38.566Z,-8.83
2022-12-06T03:46:56.903Z,-8.97
2022-12-06T03:51:59.853Z,-8.97
2022-12-06T03:57:02.951Z,-9.20
2022-12-06T04:02:05.803Z,-9.35
2022-12-06T04:07:09.911Z,-9.50
2022-12-06T04:12:31.196Z,-9.49
2022-12-06T04:17:52.255Z,-9.67
2022-12-06T04:23:04.637Z,-9.56
2022-12-06T04:28:25.748Z,-9.68
2022-12-06T04:33:46.993Z,-9.96
2022-12-06T04:38:49.654Z,-9.92
2022-12-06T04:43:52.505Z,-9.88
2022-12-06T04:48:55.140Z,-9.97
2022-12-06T04:53:57.831Z,-9.84
2022-12-06T04:59:00.429Z,-9.93
2022-12-06T05:04:03.040Z,-9.86
2022-12-06T05:09:06.552Z,-9.55
2022-12-06T05:14:09.254Z,-9.63
2022-12-06T05:19:15.514Z,-9.81
2022-12-06T05:24:18.248Z,-9.76
2022-12-06T05:29:20.892Z,-9.73
2022-12-06T05:34:24.944Z,-9.57
2022-12-06T05:39:27.534Z,-9.46
2022-12-06T05:44:30.164Z,-9.39
2022-12-06T05:49:32.999Z,-9.51
2022-12-06T05:54:35.730Z,-9.44
2022-12-06T05:59:38.602Z,-9.42
2022-12-06T06:04:41.234Z,-9.31
2022-12-06T06:09:43.804Z,-9.23
2022-12-06T06:14:46.598Z,-9.40
2022-12-06T06:19:51.525Z,-9.20
2022-12-06T06:24:54.875Z,-9.19
2022-12-06T06:29:57.536Z,-9.33
2022-12-06T06:35:00.985Z,-9.29
2022-12-06T06:40:04.562Z,-9.06
2022-12-06T06:45:07.773Z,-9.07
2022-12-06T06:50:10.654Z,-8.88
2022-12-06T06:55:13.188Z,-8.81
2022-12-06T07:00:17.300Z,-8.80
2022-12-06T07:05:19.888Z,-8.59
2022-12-06T07:10:22.538Z,-8.41
2022-12-06T07:15:25.391Z,-8.30
2022-12-06T07:20:27.908Z,-8.37
2022-12-06T07:25:32.034Z,-8.50
2022-12-06T07:30:34.724Z,-8.34
2022-12-06T07:36:10.227Z,-8.37
2022-12-06T07:41:26.906Z,-8.41
2022-12-06T07:46:29.498Z,-8.41
2022-12-06T07:51:32.116Z,-8.14
2022-12-06T07:56:34.803Z,-7.91
2022-12-06T08:01:37.958Z,-7.61
2022-12-06T08:06:40.999Z,-7.46
2022-12-06T08:11:43.552Z,-7.20
2022-12-06T08:16:46.737Z,-7.23
2022-12-06T08:21:49.318Z,-7.14
2022-12-06T08:26:52.654Z,-7.05
2022-12-06T08:31:55.283Z,-7.09
2022-12-06T08:37:03.025Z,-7.00
2022-12-06T08:42:07.865Z,-6.86
2022-12-06T08:47:11.230Z,-6.44
2022-12-06T08:52:13.832Z,-6.30
2022-12-06T08:57:16.437Z,-6.31
2022-12-06T09:02:19.477Z,-6.14
2022-12-06T09:07:23.474Z,-6.12
2022-12-06T09:12:26.599Z,-6.21
2022-12-06T09:17:29.236Z,-6.26
2022-12-06T09:22:31.811Z,-6.33
2022-12-06T09:27:34.435Z,-6.14
2022-12-06T09:32:36.919Z,-6.13
2022-12-06T09:37:39.811Z,-6.22
2022-12-06T09:43:10.513Z,-5.91
2022-12-06T09:48:48.706Z,-5.94
2022-12-06T09:54:03.730Z,-5.85
2022-12-06T09:59:20.318Z,-5.78
2022-12-06T10:04:28.053Z,-5.79
2022-12-06T10:09:31.619Z,-5.76
2022-12-06T10:14:37.125Z,-5.73
2022-12-06T10:19:42.162Z,-5.62
2022-12-06T10:25:23.968Z,-5.58
2022-12-06T10:30:26.938Z,-5.68
2022-12-06T10:35:44.039Z,-5.73
2022-12-06T10:40:57.360Z,-5.46
2022-12-06T10:46:38.844Z,-5.59
2022-12-06T10:51:46.987Z,-5.43
2022-12-06T10:56:53.211Z,-5.25
2022-12-06T11:02:00.799Z,-5.16
2022-12-06T11:07:18.804Z,-5.37
2022-12-06T11:12:31.201Z,-5.13
2022-12-06T11:17:39.746Z,-5.24
2022-12-06T11:22:59.609Z,-5.16
2022-12-06T11:28:33.776Z,-5.14
2022-12-06T11:33:37.023Z,-5.22
2022-12-06T11:38:42.864Z,-5.37
2022-12-06T11:43:45.794Z,-5.23
2022-12-06T11:48:48.615Z,-5.16
2022-12-06T11:54:04.505Z,-5.18
2022-12-06T11:59:26.865Z,-5.38
2022-12-06T12:04:41.588Z,-5.43
2022-12-06T12:10:00.783Z,-5.57
2022-12-06T12:15:05.415Z,-5.73
2022-12-06T12:20:18.755Z,-5.89
2022-12-06T12:25:22.647Z,-5.92
2022-12-06T12:30:35.581Z,-5.90
2022-12-06T12:35:42.079Z,-5.97
2022-12-06T12:40:47.020Z,-6.02
2022-12-06T12:46:15.812Z,-6.17
2022-12-06T12:51:29.521Z,-6.17
2022-12-06T12:56:38.276Z,-6.11
2022-12-06T13:01:46.845Z,-6.17
2022-12-06T13:06:58.265Z,-6.16
2022-12-06T13:12:15.459Z,-6.15
2022-12-06T13:17:19.091Z,-6.30
2022-12-06T13:22:27.074Z,-6.22
2022-12-06T13:27:46.786Z,-6.21
2022-12-06T13:32:59.715Z,-6.24
2022-12-06T13:38:26.179Z,-6.27
2022-12-06T13:43:29.236Z,-6.12
2022-12-06T13:48:57.523Z,-6.03
2022-12-06T13:54:06.097Z,-6.06
2022-12-06T13:59:11.255Z,-6.11
2022-12-06T14:09:41.913Z,-6.06
2022-12-06T14:14:45.592Z,-6.02
2022-12-06T14:19:49.884Z,-6.02
2022-12-06T14:25:20.804Z,-5.97
2022-12-06T14:30:26.507Z,-6.09
2022-12-06T14:35:36.319Z,-6.10
2022-12-06T14:41:02.315Z,-5.96
2022-12-06T14:46:11.981Z,-5.99
2022-12-06T14:51:23.866Z,-6.14
2022-12-06T14:56:37.088Z,-6.14
2022-12-06T15:01:49.608Z,-6.05
2022-12-06T15:06:55.807Z,-5.98
2022-12-06T15:12:39.808Z,-5.90
2022-12-06T15:17:43.092Z,-5.95
2022-12-06T15:22:46.507Z,-6.10
2022-12-06T15:27:49.092Z,-6.08
2022-12-06T15:32:51.594Z,-6.11
2022-12-06T15:37:54.107Z,-5.92
2022-12-06T15:43:02.116Z,-5.94
2022-12-06T15:48:05.782Z,-6.09
2022-12-06T15:53:16.613Z,-6.13
2022-12-06T15:58:20.247Z,-6.22
2022-12-06T16:03:22.895Z,-6.09
2022-12-06T16:08:25.668Z,-6.16
2022-12-06T16:13:28.774Z,-6.12
2022-12-06T16:18:32.025Z,-5.95
2022-12-06T16:29:20.534Z,-5.91
2022-12-06T16:34:23.224Z,-5.94
2022-12-06T16:39:26.445Z,-6.07
2022-12-06T16:44:29.045Z,-6.06
2022-12-06T16:49:48.779Z,-6.13
2022-12-06T16:54:52.013Z,-6.03
2022-12-06T16:59:55.097Z,-6.31
2022-12-06T17:05:01.185Z,-6.09
2022-12-06T17:10:06.574Z,-6.08
2022-12-06T17:15:20.475Z,-6.07
2022-12-06T17:20:23.131Z,-6.28
2022-12-06T17:25:25.934Z,-6.15
2022-12-06T17:30:28.548Z,-6.14
2022-12-06T17:35:32.196Z,-6.13
2022-12-06T17:40:34.945Z,-6.14
2022-12-06T17:45:37.488Z,-6.28
2022-12-06T17:50:40.115Z,-6.26
2022-12-06T17:55:42.619Z,-6.30
2022-12-06T18:00:45.162Z,-6.46
2022-12-06T18:05:48.428Z,-6.48
2022-12-06T18:11:00.309Z,-6.38
2022-12-06T18:16:13.720Z,-6.40
2022-12-06T18:21:18.047Z,-6.61
2022-12-06T18:26:22.499Z,-6.53
2022-12-06T18:31:26.321Z,-6.59
2022-12-06T18:36:30.424Z,-6.61
2022-12-06T18:41:33.456Z,-6.66
2022-12-06T18:46:36.905Z,-6.63
2022-12-06T18:51:40.040Z,-6.91
2022-12-06T18:56:42.878Z,-6.78
2022-12-06T19:01:45.522Z,-6.86
2022-12-06T19:06:48.202Z,-6.88
2022-12-06T19:11:50.765Z,-6.96
2022-12-06T19:16:53.406Z,-6.96
2022-12-06T19:21:57.702Z,-6.90
2022-12-06T19:27:01.269Z,-6.90
2022-12-06T19:32:04.054Z,-7.13
2022-12-06T19:37:06.825Z,-7.03
2022-12-06T19:42:28.479Z,-7.16
2022-12-06T19:47:30.999Z,-7.00
2022-12-06T19:52:33.594Z,-6.90
2022-12-06T19:57:36.212Z,-7.00
2022-12-06T20:02:38.861Z,-7.00
2022-12-06T20:07:41.523Z,-7.09
2022-12-06T20:12:44.043Z,-7.18
2022-12-06T20:17:46.946Z,-7.08
2022-12-06T20:22:49.546Z,-7.18
2022-12-06T20:27:54.215Z,-7.28
2022-12-06T20:32:57.022Z,-7.22
2022-12-06T20:37:59.582Z,-7.23
2022-12-06T20:43:02.833Z,-7.22
2022-12-06T20:48:05.522Z,-7.12
2022-12-06T20:53:08.105Z,-7.13
2022-12-06T20:58:10.973Z,-7.27
2022-12-06T21:03:13.616Z,-7.28
2022-12-06T21:08:16.218Z,-7.36
2022-12-06T21:13:18.804Z,-7.47
2022-12-06T21:18:23.430Z,-7.53
2022-12-06T21:23:30.113Z,-7.59
2022-12-06T21:28:33.494Z,-7.61
2022-12-06T21:33:36.175Z,-7.67
2022-12-06T21:38:39.347Z,-7.83
2022-12-06T21:43:42.141Z,-7.73
2022-12-06T21:48:45.206Z,-7.72
2022-12-06T21:53:48.610Z,-7.80
2022-12-06T21:58:51.242Z,-7.90
2022-12-06T22:03:55.466Z,-8.12
2022-12-06T22:09:03.794Z,-7.96
2022-12-06T22:14:07.932Z,-8.04
2022-12-06T22:19:10.466Z,-8.11
2022-12-06T22:24:13.055Z,-8.14
2022-12-06T22:29:16.859Z,-8.15
2022-12-06T22:34:19.441Z,-8.07
2022-12-06T22:39:22.050Z,-7.97
2022-12-06T22:44:25.530Z,-8.04
2022-12-06T22:49:28.144Z,-8.08
2022-12-06T22:54:30.735Z,-8.22
2022-12-06T22:59:33.304Z,-8.11
2022-12-06T23:04:35.944Z,-8.01
2022-12-06T23:09:38.982Z,-8.08
2022-12-06T23:14:41.707Z,-8.16
2022-12-06T23:19:44.252Z,-8.17
2022-12-06T23:24:49.357Z,-8.22
2022-12-06T23:29:52.379Z,-8.35
2022-12-06T23:34:54.912Z,-8.47
2022-12-06T23:39:57.576Z,-8.44
2022-12-06T23:45:00.159Z,-8.35
2022-12-06T23:50:03.550Z,-8.35
2022-12-06T23:55:06.562Z,-8.40
